KCEF/CEF METAR and TAF weather

Enter ICAO airport designator
Station Type Date Time Source
KCEF METAR 2022/10/01 06:55 UTC NOAA

KCEF 010655Z AUTO 00000KT 10SM OVC160 09/09 A3013 RMK AO2 SLP209 T00880086


Station Type Date Time Source
KCEF Decoded METAR 2022/10/01 06:55 UTC NOAA

Chicopee Falls / Westover Air Force Base, MA, United States (KCEF) 42-12N 072-32W 75M
Oct 01, 2022 - 02:55 AM EDT / 2022.10.01 0655 UTC
Wind: Calm:0
Visibility: 10 mile(s):0
Sky conditions: overcast
Temperature: 47.8 F (8.8 C)
Dew Point: 47.5 F (8.6 C)
Relative Humidity: 98%
Pressure (altimeter): 30.13 in. Hg (1020 hPa)
ob: KCEF 010655Z AUTO 00000KT 10SM OVC160 09/09 A3013 RMK AO2 SLP209 T00880086
cycle: 7

Station Type Date Time Source
KCEF TAF 2022/10/01 02:03 UTC NOAA

TAF TAF KCEF 010200Z 0102/0208 VRB06KT 9999 OVC200 QNH3014INS
BECMG 0107/0108 VRB06KT 9999 SCT090 OVC150 QNH3014INS
BECMG 0110/0111 02006KT 9999 -RA SCT045 OVC080 QNH3012INS
BECMG 0113/0114 03009KT 8000 -RA BKN020 OVC065 QNH3005INS
BECMG 0117/0118 03009KT 9999 -RA SCT020 OVC050 QNH3005INS
BECMG 0121/0122 03009KT 9999 NSW BKN050 OVC080 QNH3002INS
BECMG 0204/0205 03009KT 9999 BKN070 WS020/06035KT 510203 QNH3002INS TX16/0121Z TN08/0107Z LAST NO
AMDS AFT 0103 NEXT 0111

Example: see airport list